Elisabeth Knutsen — 2BBI9 — position and weather

sailwx.info

Track history (hours):
 
Tides and Currents Weather Stations Pressure Air Temp Water Temp Dewpoint Dewpoint Depression Visibility Wind Speed Wind Dir Waves Ship Positions

Elisabeth Knutsen

Last reported at 2017-Sep-20 21:00 UTC. Time now 2017-Sep-20 23:33 UTC.
Position N 04°38' W 002°49'.

Length 265 m; draft 9.6 m.

Type: Tanker. MMSI: 235064647.

Date/timePositionNaut miles runAvg speedWind from/ knotsBaromVisibWave heightAir tempDewpointWater temp
2017-Sep-20 21:00N 04°38' W 002°49'0 0.5
2017-Sep-20 20:30N 04°38' W 002°50'0 0.2
2017-Sep-20 19:59N 04°38' W 002°50'0 0.3
2017-Sep-20 19:29N 04°39' W 002°50'0 0.2
2017-Sep-20 19:00N 04°39' W 002°50'0 0.1
2017-Sep-20 18:30N 04°39' W 002°49'0 0.5
2017-Sep-20 17:59N 04°39' W 002°50'0 0.6
2017-Sep-20 17:29N 04°39' W 002°50'0 0.7
2017-Sep-20 16:59N 04°38' W 002°50'0 1.0
2017-Sep-20 16:30N 04°38' W 002°51'1 1.1
2017-Sep-20 16:00N 04°38' W 002°51'0 0.9
2017-Sep-20 15:30N 04°38' W 002°51'1 1.3
2017-Sep-20 15:00N 04°39' W 002°50'1 0.6
2017-Sep-20 13:59N 04°38' W 002°50'3 6.4
2017-Sep-20 13:29N 04°36' W 002°52'1 2.1
2017-Sep-20 12:59N 04°36' W 002°53'0 0.2
2017-Sep-20 12:30N 04°35' W 002°53'0 0.3
2017-Sep-20 12:00N 04°35' W 002°53'1 1.6
2017-Sep-20 11:29N 04°36' W 002°54'1 1.1
2017-Sep-20 10:59N 04°36' W 002°54'0 0.7
2017-Sep-20 10:27N 04°36' W 002°53'0 0.1
2017-Sep-20 10:00N 04°36' W 002°53'0 0.0
2017-Sep-20 09:30N 04°36' W 002°53'0 0.0
2017-Sep-20 09:00N 04°36' W 002°53'0 0.0
2017-Sep-20 08:30N 04°36' W 002°53'0 0.2
2017-Sep-20 08:00N 04°36' W 002°53'0 0.2
2017-Sep-20 07:30N 04°36' W 002°53'0 0.4
2017-Sep-20 07:00N 04°36' W 002°53'1 1.1
2017-Sep-20 06:30N 04°36' W 002°53'2 3.6
2017-Sep-20 06:00N 04°37' W 002°51'510.4
2017-Sep-20 05:29N 04°39' W 002°46'611.4
2017-Sep-20 04:59N 04°42' W 002°41'1 2.2
2017-Sep-20 04:29N 04°42' W 002°40'0 0.1
2017-Sep-20 03:59N 04°42' W 002°40'0 0.0
2017-Sep-20 03:29N 04°42' W 002°40'0 0.0
2017-Sep-20 02:59N 04°42' W 002°40'0 0.0
2017-Sep-20 02:29N 04°42' W 002°40'0 0.0
2017-Sep-20 01:59N 04°42' W 002°40'0 0.1
2017-Sep-20 01:29N 04°42' W 002°40'0 0.2
2017-Sep-20 00:59N 04°42' W 002°40'0 0.0
2017-Sep-20 00:29N 04°42' W 002°40'0 0.0
2017-Sep-19 23:59N 04°42' W 002°40'0 0.0
2017-Sep-19 23:29N 04°42' W 002°40'0 0.0
2017-Sep-19 22:59N 04°42' W 002°40'0 0.0
2017-Sep-19 22:29N 04°42' W 002°40'0 0.0
2017-Sep-19 21:59N 04°42' W 002°40'0 0.0
2017-Sep-19 21:29N 04°42' W 002°40'0 0.1
2017-Sep-19 20:59N 04°42' W 002°40'0 0.0
2017-Sep-19 20:28N 04°42' W 002°40'0 0.1
2017-Sep-19 19:55N 04°42' W 002°40'0 0.0
2017-Sep-19 19:28N 04°42' W 002°40'0 0.0
2017-Sep-19 07:01N 04°42' W 002°40'0 0.1
2017-Sep-19 06:58N 04°42' W 002°40'0 0.0
2017-Sep-19 06:28N 04°42' W 002°40'0 0.0
2017-Sep-19 05:58N 04°42' W 002°40'0 0.1
2017-Sep-19 05:28N 04°42' W 002°40'0 0.0
2017-Sep-19 04:58N 04°42' W 002°40'0 0.0
2017-Sep-19 04:28N 04°42' W 002°40'0 0.0
2017-Sep-19 03:58N 04°42' W 002°40'0 0.0
2017-Sep-19 03:28N 04°42' W 002°40'0 0.1
2017-Sep-19 02:58N 04°43' W 002°40'0 0.1
2017-Sep-19 02:28N 04°43' W 002°40'0 0.0
2017-Sep-19 01:58N 04°43' W 002°40'0 0.0
2017-Sep-19 01:28N 04°43' W 002°40'0 0.1
2017-Sep-19 00:58N 04°43' W 002°40'0 0.0
2017-Sep-19 00:22N 04°43' W 002°40'0 0.1
2017-Sep-18 23:58N 04°43' W 002°40'0 0.1
2017-Sep-18 23:28N 04°43' W 002°40'0 0.1
2017-Sep-18 22:58N 04°43' W 002°40'0 0.0
2017-Sep-18 22:28N 04°43' W 002°40'0 0.1
2017-Sep-18 21:58N 04°43' W 002°40'0 0.1
2017-Sep-18 21:28N 04°42' W 002°40'0 0.0
2017-Sep-18 20:58N 04°42' W 002°40'0 0.0
2017-Sep-18 20:28N 04°42' W 002°40'0 0.0
2017-Sep-18 19:58N 04°42' W 002°40'0 0.0
2017-Sep-18 19:28N 04°42' W 002°40'0 0.0
2017-Sep-18 18:58N 04°42' W 002°40'0 0.2
2017-Sep-18 18:28N 04°43' W 002°40'0 0.9
2017-Sep-18 18:00N 04°42' W 002°40'5 9.1
2017-Sep-18 17:28N 04°40' W 002°44'5 9.9
2017-Sep-18 17:00N 04°38' W 002°49'4 8.7
2017-Sep-18 16:29N 04°36' W 002°53'0 0.7
2017-Sep-18 15:59N 04°36' W 002°53'0 0.1
2017-Sep-18 15:29N 04°36' W 002°53'0 0.0
2017-Sep-18 15:00N 04°36' W 002°53'0 0.0
2017-Sep-18 14:30N 04°36' W 002°53'0 0.0
2017-Sep-18 13:59N 04°36' W 002°53'0 0.0
2017-Sep-18 13:29N 04°36' W 002°53'0 0.0
2017-Sep-18 12:59N 04°36' W 002°53'0 0.0
2017-Sep-18 12:30N 04°36' W 002°53'0 0.0
2017-Sep-18 12:00N 04°36' W 002°53'0 0.1
2017-Sep-18 11:29N 04°36' W 002°53'0 0.0
2017-Sep-18 10:59N 04°36' W 002°53'0 0.0
2017-Sep-18 10:31N 04°36' W 002°53'0 0.0
2017-Sep-18 10:00N 04°36' W 002°53'0 0.0
2017-Sep-18 09:30N 04°36' W 002°53'0 0.0
2017-Sep-18 08:59N 04°36' W 002°53'0 0.0
2017-Sep-18 08:29N 04°36' W 002°53'0 0.2
2017-Sep-18 08:00N 04°36' W 002°53'0 0.1
2017-Sep-18 07:30N 04°36' W 002°53'0 0.4
2017-Sep-18 06:59N 04°36' W 002°53'1 1.2
2017-Sep-18 06:29N 04°36' W 002°52'2 3.9
2017-Sep-18 06:00N 04°37' W 002°50'510.0
2017-Sep-18 05:30N 04°40' W 002°46'510.5
2017-Sep-18 05:00N 04°42' W 002°42'1 2.9
2017-Sep-18 04:29N 04°43' W 002°40'0 0.1
2017-Sep-18 03:59N 04°43' W 002°40'0 0.0
2017-Sep-18 03:29N 04°43' W 002°40'0 0.0
2017-Sep-18 02:59N 04°43' W 002°40'0 0.1
2017-Sep-18 02:29N 04°43' W 002°40'0 0.1
2017-Sep-18 01:59N 04°43' W 002°40'0 0.0
2017-Sep-18 01:29N 04°43' W 002°40'0 0.0
2017-Sep-18 00:59N 04°43' W 002°40'0 0.0
2017-Sep-18 00:29N 04°43' W 002°40'0 0.0
2017-Sep-17 23:59N 04°43' W 002°40'0 0.1
2017-Sep-17 23:29N 04°43' W 002°40'0 0.1
2017-Sep-17 22:59N 04°43' W 002°40'0 0.0
2017-Sep-17 22:29N 04°43' W 002°40'0 0.0
2017-Sep-17 21:59N 04°43' W 002°40'0 0.0
2017-Sep-17 21:29N 04°43' W 002°40'0 0.0
2017-Sep-17 20:59N 04°43' W 002°40'0 0.0
2017-Sep-17 20:29N 04°43' W 002°40'0 0.1
2017-Sep-17 19:59N 04°43' W 002°40'0 0.1
2017-Sep-17 19:29N 04°43' W 002°40'0 0.1
2017-Sep-17 18:56N 04°43' W 002°40'0 0.0
2017-Sep-17 18:29N 04°43' W 002°40'0 0.1
2017-Sep-17 17:59N 04°43' W 002°40'0 0.0
2017-Sep-17 17:29N 04°43' W 002°40'0 0.1
2017-Sep-17 16:59N 04°43' W 002°41'0 0.2
2017-Sep-17 16:29N 04°43' W 002°40'0 0.2
2017-Sep-17 15:59N 04°43' W 002°41'0 0.0
2017-Sep-17 15:29N 04°43' W 002°41'0 0.0
2017-Sep-17 14:59N 04°43' W 002°41'0 0.0
2017-Sep-17 14:29N 04°43' W 002°40'0 0.0
2017-Sep-17 13:56N 04°43' W 002°40'0 0.0
2017-Sep-17 13:29N 04°43' W 002°40'0 0.0
2017-Sep-17 12:59N 04°43' W 002°40'0 0.0
2017-Sep-17 12:29N 04°43' W 002°40'0 0.0
2017-Sep-17 11:59N 04°43' W 002°40'0 0.0
2017-Sep-17 11:29N 04°43' W 002°40'0 0.0
2017-Sep-17 10:59N 04°43' W 002°40'0 0.0
2017-Sep-17 10:28N 04°43' W 002°40'0 0.0
2017-Sep-17 09:58N 04°43' W 002°40'0 0.0
2017-Sep-17 09:28N 04°43' W 002°40'0 0.0
2017-Sep-17 08:58N 04°43' W 002°40'0 0.0
2017-Sep-17 08:28N 04°43' W 002°40'0 0.0
2017-Sep-17 07:58N 04°43' W 002°40'0 0.0
2017-Sep-17 07:28N 04°43' W 002°40'0 0.0
2017-Sep-17 06:58N 04°43' W 002°40'0 0.0
2017-Sep-17 06:28N 04°43' W 002°40'0 0.1
2017-Sep-17 05:58N 04°43' W 002°40'0 0.0
2017-Sep-17 05:28N 04°43' W 002°40'0 0.1
2017-Sep-17 04:58N 04°43' W 002°40'0 0.1
2017-Sep-17 04:28N 04°43' W 002°41'0 0.0
2017-Sep-17 03:58N 04°43' W 002°41'0 0.0
2017-Sep-17 03:28N 04°43' W 002°41'0 0.0
2017-Sep-17 02:58N 04°43' W 002°41'0 0.0
2017-Sep-17 02:28N 04°43' W 002°41'0 0.0
2017-Sep-17 01:58N 04°43' W 002°41'0 0.0
2017-Sep-17 01:28N 04°43' W 002°41'0 0.0
2017-Sep-17 00:58N 04°43' W 002°40'0 0.0
2017-Sep-17 00:28N 04°43' W 002°40'0 0.0
2017-Sep-16 23:58N 04°43' W 002°40'0 0.0
2017-Sep-16 23:28N 04°43' W 002°40'0 0.0
2017-Sep-16 22:58N 04°43' W 002°41'0 0.0
2017-Sep-16 22:28N 04°43' W 002°40'0 0.0
2017-Sep-16 21:58N 04°43' W 002°40'0 0.0
2017-Sep-16 21:28N 04°43' W 002°40'0 0.0
2017-Sep-16 20:58N 04°43' W 002°40'0 0.0
2017-Sep-16 20:28N 04°43' W 002°40'0 0.1
2017-Sep-16 19:58N 04°43' W 002°40'0 0.0
2017-Sep-16 19:28N 04°43' W 002°41'0 0.0
2017-Sep-16 18:58N 04°43' W 002°41'0 0.0
2017-Sep-16 18:28N 04°43' W 002°41'0 0.7
2017-Sep-16 17:59N 04°43' W 002°41'5 9.8
2017-Sep-16 17:29N 04°40' W 002°45'510.0
2017-Sep-16 17:00N 04°38' W 002°49'4 8.5
2017-Sep-16 16:30N 04°36' W 002°53'0 0.7
2017-Sep-16 16:00N 04°36' W 002°53'0 0.0
2017-Sep-16 15:30N 04°36' W 002°53'0 0.0
2017-Sep-16 15:00N 04°36' W 002°53'0 0.0
2017-Sep-16 14:30N 04°36' W 002°53'0 0.0
2017-Sep-16 14:00N 04°36' W 002°53'0 0.0
2017-Sep-16 13:30N 04°36' W 002°53'0 0.0
2017-Sep-16 13:00N 04°36' W 002°53'0 0.0
2017-Sep-16 12:30N 04°36' W 002°53'0 0.0
2017-Sep-16 11:57N 04°36' W 002°53'0 0.0
2017-Sep-16 11:30N 04°36' W 002°53'0 0.0
2017-Sep-16 11:00N 04°36' W 002°53'0 0.0
2017-Sep-16 10:27N 04°36' W 002°53'0 0.0
2017-Sep-16 10:00N 04°36' W 002°53'0 0.0
2017-Sep-16 09:29N 04°36' W 002°53'0 0.0
2017-Sep-16 08:59N 04°36' W 002°53'0 0.1
2017-Sep-16 08:29N 04°36' W 002°53'0 0.3
2017-Sep-16 08:00N 04°36' W 002°53'0 0.5
2017-Sep-16 07:30N 04°36' W 002°53'0 0.5
2017-Sep-16 06:59N 04°36' W 002°53'1 1.8
2017-Sep-16 06:29N 04°36' W 002°52'3 5.8
2017-Sep-16 06:00N 04°36' W 002°49'611.5
2017-Sep-16 05:30N 04°40' W 002°44'5 9.4
2017-Sep-16 04:59N 04°42' W 002°40'0 0.6
2017-Sep-16 04:28N 04°42' W 002°40'0 0.1
2017-Sep-16 03:52N 04°43' W 002°40'0 0.0
2017-Sep-16 03:28N 04°43' W 002°40'0 0.0
2017-Sep-16 02:58N 04°43' W 002°40'0 0.0
2017-Sep-16 02:28N 04°43' W 002°40'0 0.1
2017-Sep-16 01:58N 04°43' W 002°40'0 0.0
2017-Sep-16 01:28N 04°43' W 002°40'0 0.0
2017-Sep-16 00:58N 04°43' W 002°40'0 0.0
2017-Sep-16 00:28N 04°43' W 002°40'0 0.0
2017-Sep-15 23:58N 04°43' W 002°40'0 0.1
2017-Sep-15 23:28N 04°43' W 002°40'0 0.0
2017-Sep-15 22:55N 04°43' W 002°40'0 0.1
2017-Sep-15 22:25N 04°43' W 002°40'0 0.0
2017-Sep-15 21:58N 04°43' W 002°40'0 0.1
2017-Sep-15 21:28N 04°43' W 002°40'0 0.0
2017-Sep-15 20:58N 04°43' W 002°40'0 0.1
2017-Sep-15 20:28N 04°43' W 002°40'0 0.1
2017-Sep-15 20:00N 04°43' W 002°40'3 5.2
2017-Sep-15 19:29N 04°40' W 002°41'2 4.6
2017-Sep-15 18:59N 04°42' W 002°40'2 3.9
2017-Sep-15 18:29N 04°42' W 002°39'510.5
2017-Sep-15 18:00N 04°40' W 002°34'611.0
2017-Sep-15 17:30N 04°38' W 002°29'611.2
2017-Sep-15 16:59N 04°35' W 002°24'610.9
2017-Sep-15 16:29N 04°33' W 002°18'510.9
2017-Sep-15 16:00N 04°32' W 002°14'611.2
2017-Sep-15 15:30N 04°30' W 002°08'5 9.4
2017-Sep-15 15:00N 04°28' W 002°04'510.5
2017-Sep-15 14:29N 04°30' W 001°58'510.2
2017-Sep-15 13:59N 04°32' W 001°54'4 8.0
2017-Sep-15 13:30N 04°33' W 001°50'20 1.6
2017-Sep-15 01:06N 04°51' W 001°43'0 0.1
2017-Sep-15 00:57N 04°51' W 001°43'0 0.0
2017-Sep-15 00:30N 04°51' W 001°43'0 0.0
2017-Sep-14 23:06N 04°51' W 001°43'4 0.1
2017-Sep-13 06:15N 04°47' W 001°41'1 3.3
2017-Sep-13 05:59N 04°47' W 001°42'4 2.9
2017-Sep-13 04:35N 04°43' W 001°43'0 2.8
2017-Sep-13 04:30N 04°42' W 001°43'2 3.7
2017-Sep-13 03:56N 04°40' W 001°44'3 5.1
2017-Sep-13 03:25N 04°38' W 001°44'5 4.8
2017-Sep-13 02:28N 04°34' W 001°46'2 4.3
2017-Sep-13 01:54N 04°32' W 001°48'2 4.4
2017-Sep-13 01:27N 04°31' W 001°49'2 4.4
2017-Sep-13 00:59N 04°29' W 001°51'2 4.3
2017-Sep-13 00:29N 04°28' W 001°52'2 4.4
2017-Sep-13 00:00N 04°27' W 001°54'2 4.4
2017-Sep-12 23:29N 04°25' W 001°56'2 4.5
2017-Sep-12 22:59N 04°24' W 001°58'2 4.4
2017-Sep-12 22:29N 04°23' W 001°59'2 4.4
2017-Sep-12 21:59N 04°22' W 002°01'2 4.4
2017-Sep-12 21:30N 04°21' W 002°03'2 4.5
2017-Sep-12 21:00N 04°19' W 002°05'2 4.5
2017-Sep-12 20:30N 04°18' W 002°07'3 5.4
2017-Sep-12 19:59N 04°17' W 002°09'2 4.7
2017-Sep-12 19:29N 04°17' W 002°12'2 5.0
2017-Sep-12 19:00N 04°16' W 002°14'2 4.2
2017-Sep-12 18:30N 04°16' W 002°16'2 4.5
2017-Sep-12 17:59N 04°15' W 002°18'2 4.9
2017-Sep-12 17:29N 04°15' W 002°21'2 4.8
2017-Sep-12 16:59N 04°14' W 002°23'2 4.6
2017-Sep-12 16:29N 04°13' W 002°25'2 4.5
2017-Sep-12 16:00N 04°13' W 002°27'2 4.6
2017-Sep-12 15:30N 04°12' W 002°30'2 4.8
2017-Sep-12 14:59N 04°12' W 002°32'2 4.8
2017-Sep-12 14:29N 04°11' W 002°34'2 4.9
2017-Sep-12 13:59N 04°10' W 002°37'2 5.1
2017-Sep-12 13:30N 04°10' W 002°39'4 7.5
2017-Sep-12 12:59N 04°09' W 002°43'5 9.4
2017-Sep-12 12:29N 04°07' W 002°47'16 2.1
2017-Sep-12 04:34N 04°07' W 003°04'0 0.9
2017-Sep-12 04:30N 04°07' W 003°04'0 0.7
2017-Sep-12 03:54N 04°07' W 003°04'1 0.7
2017-Sep-12 02:12N 04°08' W 003°03'0 0.7
2017-Sep-12 01:50N 04°09' W 003°03'0 0.7
2017-Sep-12 01:29N 04°09' W 003°03'0 0.7
2017-Sep-12 01:00N 04°09' W 003°03'1 0.8
2017-Sep-12 00:20N 04°09' W 003°02'0 0.8
2017-Sep-11 23:59N 04°09' W 003°02'0 0.8
2017-Sep-11 23:28N 04°09' W 003°02'0 0.9
2017-Sep-11 22:58N 04°10' W 003°01'0 0.8
2017-Sep-11 22:28N 04°10' W 003°01'0 0.8
2017-Sep-11 22:00N 04°10' W 003°01'0 0.9
2017-Sep-11 21:28N 04°10' W 003°00'1 1.1
2017-Sep-11 20:58N 04°11' W 002°60'1 1.3
2017-Sep-11 20:25N 04°11' W 002°59'1 1.3
2017-Sep-11 20:00N 04°12' W 002°59'1 1.3
2017-Sep-11 19:30N 04°12' W 002°58'1 1.4
2017-Sep-11 18:59N 04°13' W 002°58'1 1.5
2017-Sep-11 18:27N 04°13' W 002°57'1 1.5
2017-Sep-11 18:00N 04°14' W 002°57'1 1.5
2017-Sep-11 17:27N 04°14' W 002°56'1 1.5
2017-Sep-11 16:54N 04°15' W 002°56'1 1.4
2017-Sep-11 16:29N 04°15' W 002°55'1 1.8
2017-Sep-11 15:59N 04°16' W 002°55'1 2.4
2017-Sep-11 15:29N 04°17' W 002°54'2 4.1
2017-Sep-11 15:00N 04°19' W 002°53'2 4.6
2017-Sep-11 14:30N 04°21' W 002°52'3 5.0
2017-Sep-11 13:59N 04°23' W 002°51'2 4.6
2017-Sep-11 13:30N 04°25' W 002°50'3 5.0
2017-Sep-11 12:59N 04°27' W 002°48'3 5.5
2017-Sep-11 12:30N 04°28' W 002°46'3 6.8
2017-Sep-11 12:00N 04°31' W 002°44'3 6.7
2017-Sep-11 11:30N 04°34' W 002°43'4 7.5
2017-Sep-11 11:00N 04°37' W 002°42'5 9.7
2017-Sep-11 10:30N 04°42' W 002°40'1 1.1
2017-Sep-11 10:00N 04°42' W 002°40'0 0.2
2017-Sep-11 09:30N 04°42' W 002°40'0 0.0
2017-Sep-11 09:00N 04°42' W 002°40'0 0.0
2017-Sep-11 08:30N 04°42' W 002°40'0 0.1
2017-Sep-11 08:00N 04°42' W 002°40'0 0.0
2017-Sep-11 07:30N 04°42' W 002°40'0 0.0
2017-Sep-11 06:57N 04°42' W 002°40'0 0.1
2017-Sep-11 06:30N 04°42' W 002°40'0 0.1
2017-Sep-11 06:00N 04°42' W 002°40'0 0.0
2017-Sep-11 05:30N 04°42' W 002°40'0 0.0
2017-Sep-11 05:00N 04°42' W 002°40'0 0.0
2017-Sep-11 04:30N 04°42' W 002°40'0 0.0
2017-Sep-11 04:00N 04°42' W 002°40'0 0.0
2017-Sep-11 03:30N 04°42' W 002°40'0 0.0
2017-Sep-11 03:00N 04°42' W 002°40'0 0.0
2017-Sep-11 02:30N 04°42' W 002°40'0 0.0
2017-Sep-11 02:00N 04°42' W 002°40'0 0.0
2017-Sep-11 01:30N 04°42' W 002°40'0 0.0
2017-Sep-11 01:00N 04°42' W 002°40'0 0.0
2017-Sep-11 00:27N 04°42' W 002°40'0 0.0
2017-Sep-11 00:00N 04°42' W 002°40'0 0.1
2017-Sep-10 23:30N 04°42' W 002°40'0 0.1
2017-Sep-10 23:00N 04°42' W 002°40'0 0.0
2017-Sep-10 22:30N 04°42' W 002°40'0 0.0
2017-Sep-10 22:00N 04°42' W 002°40'0 0.0
2017-Sep-10 21:30N 04°42' W 002°40'0 0.0
2017-Sep-10 21:00N 04°42' W 002°40'  
Track history (hours):
 
Tides and Currents Weather Stations Pressure Air Temp Water Temp Dewpoint Dewpoint Depression Visibility Wind Speed Wind Dir Waves Ship Positions

Elisabeth Knutsen

Last reported at 2017-Sep-20 21:00 UTC. Time now 2017-Sep-20 23:33 UTC.
Position N 04°38' W 002°49'.

Length 265 m; draft 9.6 m.

Type: Tanker. MMSI: 235064647.

Date/timePositionNaut miles runAvg speedWind from/ knotsBaromVisibWave heightAir tempDewpointWater temp
2017-Sep-20 21:00N 04°38' W 002°49'0 0.5
2017-Sep-20 20:30N 04°38' W 002°50'0 0.2
2017-Sep-20 19:59N 04°38' W 002°50'0 0.3
2017-Sep-20 19:29N 04°39' W 002°50'0 0.2
2017-Sep-20 19:00N 04°39' W 002°50'0 0.1
2017-Sep-20 18:30N 04°39' W 002°49'0 0.5
2017-Sep-20 17:59N 04°39' W 002°50'0 0.6
2017-Sep-20 17:29N 04°39' W 002°50'0 0.7
2017-Sep-20 16:59N 04°38' W 002°50'0 1.0
2017-Sep-20 16:30N 04°38' W 002°51'1 1.1
2017-Sep-20 16:00N 04°38' W 002°51'0 0.9
2017-Sep-20 15:30N 04°38' W 002°51'1 1.3
2017-Sep-20 15:00N 04°39' W 002°50'1 0.6
2017-Sep-20 13:59N 04°38' W 002°50'3 6.4
2017-Sep-20 13:29N 04°36' W 002°52'1 2.1
2017-Sep-20 12:59N 04°36' W 002°53'0 0.2
2017-Sep-20 12:30N 04°35' W 002°53'0 0.3
2017-Sep-20 12:00N 04°35' W 002°53'1 1.6
2017-Sep-20 11:29N 04°36' W 002°54'1 1.1
2017-Sep-20 10:59N 04°36' W 002°54'0 0.7
2017-Sep-20 10:27N 04°36' W 002°53'0 0.1
2017-Sep-20 10:00N 04°36' W 002°53'0 0.0
2017-Sep-20 09:30N 04°36' W 002°53'0 0.0
2017-Sep-20 09:00N 04°36' W 002°53'0 0.0
2017-Sep-20 08:30N 04°36' W 002°53'0 0.2
2017-Sep-20 08:00N 04°36' W 002°53'0 0.2
2017-Sep-20 07:30N 04°36' W 002°53'0 0.4
2017-Sep-20 07:00N 04°36' W 002°53'1 1.1
2017-Sep-20 06:30N 04°36' W 002°53'2 3.6
2017-Sep-20 06:00N 04°37' W 002°51'510.4
2017-Sep-20 05:29N 04°39' W 002°46'611.4
2017-Sep-20 04:59N 04°42' W 002°41'1 2.2
2017-Sep-20 04:29N 04°42' W 002°40'0 0.1
2017-Sep-20 03:59N 04°42' W 002°40'0 0.0
2017-Sep-20 03:29N 04°42' W 002°40'0 0.0
2017-Sep-20 02:59N 04°42' W 002°40'0 0.0
2017-Sep-20 02:29N 04°42' W 002°40'0 0.0
2017-Sep-20 01:59N 04°42' W 002°40'0 0.1
2017-Sep-20 01:29N 04°42' W 002°40'0 0.2
2017-Sep-20 00:59N 04°42' W 002°40'0 0.0
2017-Sep-20 00:29N 04°42' W 002°40'0 0.0
2017-Sep-19 23:59N 04°42' W 002°40'0 0.0
2017-Sep-19 23:29N 04°42' W 002°40'0 0.0
2017-Sep-19 22:59N 04°42' W 002°40'0 0.0
2017-Sep-19 22:29N 04°42' W 002°40'0 0.0
2017-Sep-19 21:59N 04°42' W 002°40'0 0.0
2017-Sep-19 21:29N 04°42' W 002°40'0 0.1
2017-Sep-19 20:59N 04°42' W 002°40'0 0.0
2017-Sep-19 20:28N 04°42' W 002°40'0 0.1
2017-Sep-19 19:55N 04°42' W 002°40'0 0.0
2017-Sep-19 19:28N 04°42' W 002°40'0 0.0
2017-Sep-19 07:01N 04°42' W 002°40'0 0.1
2017-Sep-19 06:58N 04°42' W 002°40'0 0.0
2017-Sep-19 06:28N 04°42' W 002°40'0 0.0
2017-Sep-19 05:58N 04°42' W 002°40'0 0.1
2017-Sep-19 05:28N 04°42' W 002°40'0 0.0
2017-Sep-19 04:58N 04°42' W 002°40'0 0.0
2017-Sep-19 04:28N 04°42' W 002°40'0 0.0
2017-Sep-19 03:58N 04°42' W 002°40'0 0.0
2017-Sep-19 03:28N 04°42' W 002°40'0 0.1
2017-Sep-19 02:58N 04°43' W 002°40'0 0.1
2017-Sep-19 02:28N 04°43' W 002°40'0 0.0
2017-Sep-19 01:58N 04°43' W 002°40'0 0.0
2017-Sep-19 01:28N 04°43' W 002°40'0 0.1
2017-Sep-19 00:58N 04°43' W 002°40'0 0.0
2017-Sep-19 00:22N 04°43' W 002°40'0 0.1
2017-Sep-18 23:58N 04°43' W 002°40'0 0.1
2017-Sep-18 23:28N 04°43' W 002°40'0 0.1
2017-Sep-18 22:58N 04°43' W 002°40'0 0.0
2017-Sep-18 22:28N 04°43' W 002°40'0 0.1
2017-Sep-18 21:58N 04°43' W 002°40'0 0.1
2017-Sep-18 21:28N 04°42' W 002°40'0 0.0
2017-Sep-18 20:58N 04°42' W 002°40'0 0.0
2017-Sep-18 20:28N 04°42' W 002°40'0 0.0
2017-Sep-18 19:58N 04°42' W 002°40'0 0.0
2017-Sep-18 19:28N 04°42' W 002°40'0 0.0
2017-Sep-18 18:58N 04°42' W 002°40'0 0.2
2017-Sep-18 18:28N 04°43' W 002°40'0 0.9
2017-Sep-18 18:00N 04°42' W 002°40'5 9.1
2017-Sep-18 17:28N 04°40' W 002°44'5 9.9
2017-Sep-18 17:00N 04°38' W 002°49'4 8.7
2017-Sep-18 16:29N 04°36' W 002°53'0 0.7
2017-Sep-18 15:59N 04°36' W 002°53'0 0.1
2017-Sep-18 15:29N 04°36' W 002°53'0 0.0
2017-Sep-18 15:00N 04°36' W 002°53'0 0.0
2017-Sep-18 14:30N 04°36' W 002°53'0 0.0
2017-Sep-18 13:59N 04°36' W 002°53'0 0.0
2017-Sep-18 13:29N 04°36' W 002°53'0 0.0
2017-Sep-18 12:59N 04°36' W 002°53'0 0.0
2017-Sep-18 12:30N 04°36' W 002°53'0 0.0
2017-Sep-18 12:00N 04°36' W 002°53'0 0.1
2017-Sep-18 11:29N 04°36' W 002°53'0 0.0
2017-Sep-18 10:59N 04°36' W 002°53'0 0.0
2017-Sep-18 10:31N 04°36' W 002°53'0 0.0
2017-Sep-18 10:00N 04°36' W 002°53'0 0.0
2017-Sep-18 09:30N 04°36' W 002°53'0 0.0
2017-Sep-18 08:59N 04°36' W 002°53'0 0.0
2017-Sep-18 08:29N 04°36' W 002°53'0 0.2
2017-Sep-18 08:00N 04°36' W 002°53'0 0.1
2017-Sep-18 07:30N 04°36' W 002°53'0 0.4
2017-Sep-18 06:59N 04°36' W 002°53'1 1.2
2017-Sep-18 06:29N 04°36' W 002°52'2 3.9
2017-Sep-18 06:00N 04°37' W 002°50'510.0
2017-Sep-18 05:30N 04°40' W 002°46'510.5
2017-Sep-18 05:00N 04°42' W 002°42'1 2.9
2017-Sep-18 04:29N 04°43' W 002°40'0 0.1
2017-Sep-18 03:59N 04°43' W 002°40'0 0.0
2017-Sep-18 03:29N 04°43' W 002°40'0 0.0
2017-Sep-18 02:59N 04°43' W 002°40'0 0.1
2017-Sep-18 02:29N 04°43' W 002°40'0 0.1
2017-Sep-18 01:59N 04°43' W 002°40'0 0.0
2017-Sep-18 01:29N 04°43' W 002°40'0 0.0
2017-Sep-18 00:59N 04°43' W 002°40'0 0.0
2017-Sep-18 00:29N 04°43' W 002°40'0 0.0
2017-Sep-17 23:59N 04°43' W 002°40'0 0.1
2017-Sep-17 23:29N 04°43' W 002°40'0 0.1
2017-Sep-17 22:59N 04°43' W 002°40'0 0.0
2017-Sep-17 22:29N 04°43' W 002°40'0 0.0
2017-Sep-17 21:59N 04°43' W 002°40'0 0.0
2017-Sep-17 21:29N 04°43' W 002°40'0 0.0
2017-Sep-17 20:59N 04°43' W 002°40'0 0.0
2017-Sep-17 20:29N 04°43' W 002°40'0 0.1
2017-Sep-17 19:59N 04°43' W 002°40'0 0.1
2017-Sep-17 19:29N 04°43' W 002°40'0 0.1
2017-Sep-17 18:56N 04°43' W 002°40'0 0.0
2017-Sep-17 18:29N 04°43' W 002°40'0 0.1
2017-Sep-17 17:59N 04°43' W 002°40'0 0.0
2017-Sep-17 17:29N 04°43' W 002°40'0 0.1
2017-Sep-17 16:59N 04°43' W 002°41'0 0.2
2017-Sep-17 16:29N 04°43' W 002°40'0 0.2
2017-Sep-17 15:59N 04°43' W 002°41'0 0.0
2017-Sep-17 15:29N 04°43' W 002°41'0 0.0
2017-Sep-17 14:59N 04°43' W 002°41'0 0.0
2017-Sep-17 14:29N 04°43' W 002°40'0 0.0
2017-Sep-17 13:56N 04°43' W 002°40'0 0.0
2017-Sep-17 13:29N 04°43' W 002°40'0 0.0
2017-Sep-17 12:59N 04°43' W 002°40'0 0.0
2017-Sep-17 12:29N 04°43' W 002°40'0 0.0
2017-Sep-17 11:59N 04°43' W 002°40'0 0.0
2017-Sep-17 11:29N 04°43' W 002°40'0 0.0
2017-Sep-17 10:59N 04°43' W 002°40'0 0.0
2017-Sep-17 10:28N 04°43' W 002°40'0 0.0
2017-Sep-17 09:58N 04°43' W 002°40'0 0.0
2017-Sep-17 09:28N 04°43' W 002°40'0 0.0
2017-Sep-17 08:58N 04°43' W 002°40'0 0.0
2017-Sep-17 08:28N 04°43' W 002°40'0 0.0
2017-Sep-17 07:58N 04°43' W 002°40'0 0.0
2017-Sep-17 07:28N 04°43' W 002°40'0 0.0
2017-Sep-17 06:58N 04°43' W 002°40'0 0.0
2017-Sep-17 06:28N 04°43' W 002°40'0 0.1
2017-Sep-17 05:58N 04°43' W 002°40'0 0.0
2017-Sep-17 05:28N 04°43' W 002°40'0 0.1
2017-Sep-17 04:58N 04°43' W 002°40'0 0.1
2017-Sep-17 04:28N 04°43' W 002°41'0 0.0
2017-Sep-17 03:58N 04°43' W 002°41'0 0.0
2017-Sep-17 03:28N 04°43' W 002°41'0 0.0
2017-Sep-17 02:58N 04°43' W 002°41'0 0.0
2017-Sep-17 02:28N 04°43' W 002°41'0 0.0
2017-Sep-17 01:58N 04°43' W 002°41'0 0.0
2017-Sep-17 01:28N 04°43' W 002°41'0 0.0
2017-Sep-17 00:58N 04°43' W 002°40'0 0.0
2017-Sep-17 00:28N 04°43' W 002°40'0 0.0
2017-Sep-16 23:58N 04°43' W 002°40'0 0.0
2017-Sep-16 23:28N 04°43' W 002°40'0 0.0
2017-Sep-16 22:58N 04°43' W 002°41'0 0.0
2017-Sep-16 22:28N 04°43' W 002°40'0 0.0
2017-Sep-16 21:58N 04°43' W 002°40'0 0.0
2017-Sep-16 21:28N 04°43' W 002°40'0 0.0
2017-Sep-16 20:58N 04°43' W 002°40'0 0.0
2017-Sep-16 20:28N 04°43' W 002°40'0 0.1
2017-Sep-16 19:58N 04°43' W 002°40'0 0.0
2017-Sep-16 19:28N 04°43' W 002°41'0 0.0
2017-Sep-16 18:58N 04°43' W 002°41'0 0.0
2017-Sep-16 18:28N 04°43' W 002°41'0 0.7
2017-Sep-16 17:59N 04°43' W 002°41'5 9.8
2017-Sep-16 17:29N 04°40' W 002°45'510.0
2017-Sep-16 17:00N 04°38' W 002°49'4 8.5
2017-Sep-16 16:30N 04°36' W 002°53'0 0.7
2017-Sep-16 16:00N 04°36' W 002°53'0 0.0
2017-Sep-16 15:30N 04°36' W 002°53'0 0.0
2017-Sep-16 15:00N 04°36' W 002°53'0 0.0
2017-Sep-16 14:30N 04°36' W 002°53'0 0.0
2017-Sep-16 14:00N 04°36' W 002°53'0 0.0
2017-Sep-16 13:30N 04°36' W 002°53'0 0.0
2017-Sep-16 13:00N 04°36' W 002°53'0 0.0
2017-Sep-16 12:30N 04°36' W 002°53'0 0.0
2017-Sep-16 11:57N 04°36' W 002°53'0 0.0
2017-Sep-16 11:30N 04°36' W 002°53'0 0.0
2017-Sep-16 11:00N 04°36' W 002°53'0 0.0
2017-Sep-16 10:27N 04°36' W 002°53'0 0.0
2017-Sep-16 10:00N 04°36' W 002°53'0 0.0
2017-Sep-16 09:29N 04°36' W 002°53'0 0.0
2017-Sep-16 08:59N 04°36' W 002°53'0 0.1
2017-Sep-16 08:29N 04°36' W 002°53'0 0.3
2017-Sep-16 08:00N 04°36' W 002°53'0 0.5
2017-Sep-16 07:30N 04°36' W 002°53'0 0.5
2017-Sep-16 06:59N 04°36' W 002°53'1 1.8
2017-Sep-16 06:29N 04°36' W 002°52'3 5.8
2017-Sep-16 06:00N 04°36' W 002°49'611.5
2017-Sep-16 05:30N 04°40' W 002°44'5 9.4
2017-Sep-16 04:59N 04°42' W 002°40'0 0.6
2017-Sep-16 04:28N 04°42' W 002°40'0 0.1
2017-Sep-16 03:52N 04°43' W 002°40'0 0.0
2017-Sep-16 03:28N 04°43' W 002°40'0 0.0
2017-Sep-16 02:58N 04°43' W 002°40'0 0.0
2017-Sep-16 02:28N 04°43' W 002°40'0 0.1
2017-Sep-16 01:58N 04°43' W 002°40'0 0.0
2017-Sep-16 01:28N 04°43' W 002°40'0 0.0
2017-Sep-16 00:58N 04°43' W 002°40'0 0.0
2017-Sep-16 00:28N 04°43' W 002°40'0 0.0
2017-Sep-15 23:58N 04°43' W 002°40'0 0.1
2017-Sep-15 23:28N 04°43' W 002°40'0 0.0
2017-Sep-15 22:55N 04°43' W 002°40'0 0.1
2017-Sep-15 22:25N 04°43' W 002°40'0 0.0
2017-Sep-15 21:58N 04°43' W 002°40'0 0.1
2017-Sep-15 21:28N 04°43' W 002°40'0 0.0
2017-Sep-15 20:58N 04°43' W 002°40'0 0.1
2017-Sep-15 20:28N 04°43' W 002°40'0 0.1
2017-Sep-15 20:00N 04°43' W 002°40'3 5.2
2017-Sep-15 19:29N 04°40' W 002°41'2 4.6
2017-Sep-15 18:59N 04°42' W 002°40'2 3.9
2017-Sep-15 18:29N 04°42' W 002°39'510.5
2017-Sep-15 18:00N 04°40' W 002°34'611.0
2017-Sep-15 17:30N 04°38' W 002°29'611.2
2017-Sep-15 16:59N 04°35' W 002°24'610.9
2017-Sep-15 16:29N 04°33' W 002°18'510.9
2017-Sep-15 16:00N 04°32' W 002°14'611.2
2017-Sep-15 15:30N 04°30' W 002°08'5 9.4
2017-Sep-15 15:00N 04°28' W 002°04'510.5
2017-Sep-15 14:29N 04°30' W 001°58'510.2
2017-Sep-15 13:59N 04°32' W 001°54'4 8.0
2017-Sep-15 13:30N 04°33' W 001°50'20 1.6
2017-Sep-15 01:06N 04°51' W 001°43'0 0.1
2017-Sep-15 00:57N 04°51' W 001°43'0 0.0
2017-Sep-15 00:30N 04°51' W 001°43'0 0.0
2017-Sep-14 23:06N 04°51' W 001°43'4 0.1
2017-Sep-13 06:15N 04°47' W 001°41'1 3.3
2017-Sep-13 05:59N 04°47' W 001°42'4 2.9
2017-Sep-13 04:35N 04°43' W 001°43'0 2.8
2017-Sep-13 04:30N 04°42' W 001°43'2 3.7
2017-Sep-13 03:56N 04°40' W 001°44'3 5.1
2017-Sep-13 03:25N 04°38' W 001°44'5 4.8
2017-Sep-13 02:28N 04°34' W 001°46'2 4.3
2017-Sep-13 01:54N 04°32' W 001°48'2 4.4
2017-Sep-13 01:27N 04°31' W 001°49'2 4.4
2017-Sep-13 00:59N 04°29' W 001°51'2 4.3
2017-Sep-13 00:29N 04°28' W 001°52'2 4.4
2017-Sep-13 00:00N 04°27' W 001°54'2 4.4
2017-Sep-12 23:29N 04°25' W 001°56'2 4.5
2017-Sep-12 22:59N 04°24' W 001°58'2 4.4
2017-Sep-12 22:29N 04°23' W 001°59'2 4.4
2017-Sep-12 21:59N 04°22' W 002°01'2 4.4
2017-Sep-12 21:30N 04°21' W 002°03'2 4.5
2017-Sep-12 21:00N 04°19' W 002°05'2 4.5
2017-Sep-12 20:30N 04°18' W 002°07'3 5.4
2017-Sep-12 19:59N 04°17' W 002°09'2 4.7
2017-Sep-12 19:29N 04°17' W 002°12'2 5.0
2017-Sep-12 19:00N 04°16' W 002°14'2 4.2
2017-Sep-12 18:30N 04°16' W 002°16'2 4.5
2017-Sep-12 17:59N 04°15' W 002°18'2 4.9
2017-Sep-12 17:29N 04°15' W 002°21'2 4.8
2017-Sep-12 16:59N 04°14' W 002°23'2 4.6
2017-Sep-12 16:29N 04°13' W 002°25'2 4.5
2017-Sep-12 16:00N 04°13' W 002°27'2 4.6
2017-Sep-12 15:30N 04°12' W 002°30'2 4.8
2017-Sep-12 14:59N 04°12' W 002°32'2 4.8
2017-Sep-12 14:29N 04°11' W 002°34'2 4.9
2017-Sep-12 13:59N 04°10' W 002°37'2 5.1
2017-Sep-12 13:30N 04°10' W 002°39'4 7.5
2017-Sep-12 12:59N 04°09' W 002°43'5 9.4
2017-Sep-12 12:29N 04°07' W 002°47'16 2.1
2017-Sep-12 04:34N 04°07' W 003°04'0 0.9
2017-Sep-12 04:30N 04°07' W 003°04'0 0.7
2017-Sep-12 03:54N 04°07' W 003°04'1 0.7
2017-Sep-12 02:12N 04°08' W 003°03'0 0.7
2017-Sep-12 01:50N 04°09' W 003°03'0 0.7
2017-Sep-12 01:29N 04°09' W 003°03'0 0.7
2017-Sep-12 01:00N 04°09' W 003°03'1 0.8
2017-Sep-12 00:20N 04°09' W 003°02'0 0.8
2017-Sep-11 23:59N 04°09' W 003°02'0 0.8
2017-Sep-11 23:28N 04°09' W 003°02'0 0.9
2017-Sep-11 22:58N 04°10' W 003°01'0 0.8
2017-Sep-11 22:28N 04°10' W 003°01'0 0.8
2017-Sep-11 22:00N 04°10' W 003°01'0 0.9
2017-Sep-11 21:28N 04°10' W 003°00'1 1.1
2017-Sep-11 20:58N 04°11' W 002°60'1 1.3
2017-Sep-11 20:25N 04°11' W 002°59'1 1.3
2017-Sep-11 20:00N 04°12' W 002°59'1 1.3
2017-Sep-11 19:30N 04°12' W 002°58'1 1.4
2017-Sep-11 18:59N 04°13' W 002°58'1 1.5
2017-Sep-11 18:27N 04°13' W 002°57'1 1.5
2017-Sep-11 18:00N 04°14' W 002°57'1 1.5
2017-Sep-11 17:27N 04°14' W 002°56'1 1.5
2017-Sep-11 16:54N 04°15' W 002°56'1 1.4
2017-Sep-11 16:29N 04°15' W 002°55'1 1.8
2017-Sep-11 15:59N 04°16' W 002°55'1 2.4
2017-Sep-11 15:29N 04°17' W 002°54'2 4.1
2017-Sep-11 15:00N 04°19' W 002°53'2 4.6
2017-Sep-11 14:30N 04°21' W 002°52'3 5.0
2017-Sep-11 13:59N 04°23' W 002°51'2 4.6
2017-Sep-11 13:30N 04°25' W 002°50'3 5.0
2017-Sep-11 12:59N 04°27' W 002°48'3 5.5
2017-Sep-11 12:30N 04°28' W 002°46'3 6.8
2017-Sep-11 12:00N 04°31' W 002°44'3 6.7
2017-Sep-11 11:30N 04°34' W 002°43'4 7.5
2017-Sep-11 11:00N 04°37' W 002°42'5 9.7
2017-Sep-11 10:30N 04°42' W 002°40'1 1.1
2017-Sep-11 10:00N 04°42' W 002°40'0 0.2
2017-Sep-11 09:30N 04°42' W 002°40'0 0.0
2017-Sep-11 09:00N 04°42' W 002°40'0 0.0
2017-Sep-11 08:30N 04°42' W 002°40'0 0.1
2017-Sep-11 08:00N 04°42' W 002°40'0 0.0
2017-Sep-11 07:30N 04°42' W 002°40'0 0.0
2017-Sep-11 06:57N 04°42' W 002°40'0 0.1
2017-Sep-11 06:30N 04°42' W 002°40'0 0.1
2017-Sep-11 06:00N 04°42' W 002°40'0 0.0
2017-Sep-11 05:30N 04°42' W 002°40'0 0.0
2017-Sep-11 05:00N 04°42' W 002°40'0 0.0
2017-Sep-11 04:30N 04°42' W 002°40'0 0.0
2017-Sep-11 04:00N 04°42' W 002°40'0 0.0
2017-Sep-11 03:30N 04°42' W 002°40'0 0.0
2017-Sep-11 03:00N 04°42' W 002°40'0 0.0
2017-Sep-11 02:30N 04°42' W 002°40'0 0.0
2017-Sep-11 02:00N 04°42' W 002°40'0 0.0
2017-Sep-11 01:30N 04°42' W 002°40'0 0.0
2017-Sep-11 01:00N 04°42' W 002°40'0 0.0
2017-Sep-11 00:27N 04°42' W 002°40'0 0.0
2017-Sep-11 00:00N 04°42' W 002°40'0 0.1
2017-Sep-10 23:30N 04°42' W 002°40'0 0.1
2017-Sep-10 23:00N 04°42' W 002°40'0 0.0
2017-Sep-10 22:30N 04°42' W 002°40'0 0.0
2017-Sep-10 22:00N 04°42' W 002°40'0 0.0
2017-Sep-10 21:30N 04°42' W 002°40'0 0.0
2017-Sep-10 21:00N 04°42' W 002°40'  

Dump ship's entire track history